createdAt,value
2022-10-23T00:01:34.812Z,98410.52
2022-10-23T00:04:04.000Z,98411.88
2022-10-23T00:06:32.806Z,98409.59
2022-10-23T00:08:59.857Z,98408.92
2022-10-23T00:11:28.398Z,98404.58
2022-10-23T00:13:56.471Z,98405.20
2022-10-23T00:16:25.044Z,98404.80
2022-10-23T00:18:55.792Z,98400.76
2022-10-23T00:21:23.630Z,98398.49
2022-10-23T00:23:50.702Z,98397.90
2022-10-23T00:26:17.902Z,98395.84
2022-10-23T00:28:48.904Z,98404.64
2022-10-23T00:31:15.961Z,98401.64
2022-10-23T00:33:46.048Z,98400.79
2022-10-23T00:36:14.358Z,98398.70
2022-10-23T00:38:44.098Z,98401.77
2022-10-23T00:41:17.874Z,98398.37
2022-10-23T00:43:59.381Z,98398.77
2022-10-23T00:46:26.554Z,98403.70
2022-10-23T00:48:53.562Z,98403.24
2022-10-23T00:51:20.663Z,98403.39
2022-10-23T00:54:00.985Z,98406.70
2022-10-23T00:56:37.355Z,98406.44
2022-10-23T00:59:04.893Z,98405.38
2022-10-23T01:01:32.590Z,98403.48
2022-10-23T01:04:01.427Z,98401.30
2022-10-23T01:06:36.280Z,98405.59
2022-10-23T01:09:14.598Z,98402.92
2022-10-23T01:11:45.969Z,98399.30
2022-10-23T01:14:23.717Z,98403.56
2022-10-23T01:17:12.914Z,98401.35
2022-10-23T01:20:05.319Z,98401.20
2022-10-23T01:22:49.915Z,98401.02
2022-10-23T01:25:30.029Z,98406.06
2022-10-23T01:28:05.074Z,98418.74
2022-10-23T01:30:33.351Z,98418.25
2022-10-23T01:33:10.023Z,98421.35
2022-10-23T01:35:53.222Z,98426.29
2022-10-23T01:38:25.348Z,98424.52
2022-10-23T01:41:03.030Z,98423.14
2022-10-23T01:43:42.752Z,98427.55
2022-10-23T01:46:11.271Z,98432.46
2022-10-23T01:48:40.164Z,98435.94
2022-10-23T01:51:08.426Z,98437.50
2022-10-23T01:53:38.604Z,98439.73
2022-10-23T01:56:09.151Z,98445.49
2022-10-23T01:58:36.171Z,98446.31
2022-10-23T02:01:04.045Z,98447.13
2022-10-23T02:03:34.259Z,98453.88
2022-10-23T02:06:01.242Z,98458.45
2022-10-23T02:08:28.409Z,98460.62
2022-10-23T02:11:04.382Z,98459.19
2022-10-23T02:13:38.552Z,98464.81
2022-10-23T02:16:35.897Z,98465.71
2022-10-23T02:19:35.344Z,98469.59
2022-10-23T02:22:16.756Z,98476.51
2022-10-23T02:24:49.538Z,98482.21
2022-10-23T02:27:24.520Z,98481.48
2022-10-23T02:29:55.610Z,98485.82
2022-10-23T02:32:23.060Z,98485.77
2022-10-23T02:34:50.243Z,98492.31
2022-10-23T02:37:17.201Z,98496.40
2022-10-23T02:39:44.253Z,98498.23
2022-10-23T02:42:22.792Z,98504.47
2022-10-23T02:45:15.870Z,98506.34
2022-10-23T02:47:51.226Z,98507.56
2022-10-23T02:50:26.959Z,98513.55
2022-10-23T02:53:16.062Z,98510.59
2022-10-23T02:55:45.896Z,98510.55
2022-10-23T02:58:12.982Z,98517.20
2022-10-23T03:00:49.389Z,98522.28
2022-10-23T03:03:22.765Z,98526.55
2022-10-23T03:05:49.879Z,98523.92
2022-10-23T03:08:17.146Z,98530.43
2022-10-23T03:10:44.285Z,98527.04
2022-10-23T03:13:11.888Z,98535.73
2022-10-23T03:15:44.899Z,98533.50
2022-10-23T03:18:16.723Z,98532.89
2022-10-23T03:20:50.112Z,98532.74
2022-10-23T03:23:18.299Z,98533.40
2022-10-23T03:25:45.257Z,98534.45
2022-10-23T03:28:23.595Z,98534.70
2022-10-23T03:30:51.078Z,98537.95
2022-10-23T03:33:18.333Z,98539.39
2022-10-23T03:35:45.902Z,98539.27
2022-10-23T03:38:14.665Z,98549.58
2022-10-23T03:40:42.460Z,98546.77
2022-10-23T03:43:12.402Z,98546.48
2022-10-23T03:45:39.604Z,98547.83
2022-10-23T03:48:06.931Z,98550.16
2022-10-23T03:50:35.090Z,98552.69
2022-10-23T03:53:03.566Z,98553.42
2022-10-23T03:55:31.917Z,98552.23
2022-10-23T03:57:59.309Z,98553.25
2022-10-23T04:00:26.446Z,98555.95
2022-10-23T04:02:54.836Z,98561.15
2022-10-23T04:05:22.075Z,98563.74
2022-10-23T04:07:57.041Z,98564.40
2022-10-23T04:10:27.734Z,98561.76
2022-10-23T04:12:56.994Z,98565.52
2022-10-23T04:15:23.994Z,98565.58
2022-10-23T04:17:51.428Z,98567.09
2022-10-23T04:20:19.733Z,98570.69
2022-10-23T04:22:47.639Z,98570.26
2022-10-23T04:25:14.943Z,98571.39
2022-10-23T04:27:42.977Z,98568.98
2022-10-23T04:30:11.074Z,98575.30
2022-10-23T04:32:38.808Z,98576.96
2022-10-23T04:35:06.729Z,98579.29
2022-10-23T04:37:33.972Z,98580.11
2022-10-23T04:40:01.370Z,98583.52
2022-10-23T04:42:28.446Z,98589.30
2022-10-23T04:44:57.571Z,98589.19
2022-10-23T04:47:25.333Z,98590.98
2022-10-23T04:49:59.619Z,98589.02
2022-10-23T04:52:59.240Z,98595.55
2022-10-23T04:55:52.305Z,98597.85
2022-10-23T04:58:28.554Z,98599.66
2022-10-23T05:00:57.216Z,98602.00
2022-10-23T05:03:26.442Z,98598.34
2022-10-23T05:05:54.907Z,98601.69
2022-10-23T05:08:42.132Z,98601.94
2022-10-23T05:11:21.466Z,98602.05
2022-10-23T05:13:50.273Z,98609.79
2022-10-23T05:16:48.881Z,98611.41
2022-10-23T05:19:24.306Z,98616.02
2022-10-23T05:21:55.964Z,98618.05
2022-10-23T05:24:26.649Z,98622.76
2022-10-23T05:27:00.164Z,98625.31
2022-10-23T05:29:32.825Z,98628.23
2022-10-23T05:32:02.299Z,98632.86
2022-10-23T05:34:32.693Z,98639.15
2022-10-23T05:37:01.861Z,98640.39
2022-10-23T05:39:30.911Z,98643.14
2022-10-23T05:42:00.211Z,98647.21
2022-10-23T05:44:27.224Z,98650.45
2022-10-23T05:47:08.466Z,98653.22
2022-10-23T05:50:15.032Z,98659.63
2022-10-23T05:53:11.638Z,98662.80
2022-10-23T05:56:06.990Z,98668.48
2022-10-23T05:59:00.411Z,98674.77
2022-10-23T06:01:53.723Z,98675.04
2022-10-23T06:04:46.916Z,98681.21
2022-10-23T06:07:27.708Z,98680.37
2022-10-23T06:09:57.265Z,98683.51
2022-10-23T06:12:24.724Z,98687.35
2022-10-23T06:14:53.353Z,98689.25
2022-10-23T06:17:21.492Z,98689.48
2022-10-23T06:19:49.021Z,98697.27
2022-10-23T06:24:49.610Z,98701.79
2022-10-23T06:27:23.478Z,98709.23
2022-10-23T06:29:51.180Z,98711.75
2022-10-23T06:32:20.918Z,98714.27
2022-10-23T06:34:59.623Z,98715.86
2022-10-23T06:37:26.788Z,98716.77
2022-10-23T06:40:20.469Z,98720.58
2022-10-23T06:43:06.212Z,98722.70
2022-10-23T06:45:43.548Z,98726.88
2022-10-23T06:48:13.672Z,98729.81
2022-10-23T06:50:46.564Z,98729.45
2022-10-23T06:53:20.001Z,98729.83
2022-10-23T06:55:54.583Z,98739.75
2022-10-23T06:58:22.605Z,98739.02
2022-10-23T07:01:04.519Z,98742.14
2022-10-23T07:03:31.757Z,98742.66
2022-10-23T07:06:03.556Z,98749.43
2022-10-23T07:08:33.021Z,98748.13
2022-10-23T07:11:07.831Z,98746.73
2022-10-23T07:13:35.587Z,98744.30
2022-10-23T07:16:20.251Z,98754.23
2022-10-23T07:18:49.765Z,98749.68
2022-10-23T07:21:37.493Z,98752.09
2022-10-23T07:24:17.638Z,98752.18
2022-10-23T07:26:45.109Z,98755.95
2022-10-23T07:29:12.797Z,98759.14
2022-10-23T07:31:40.109Z,98762.48
2022-10-23T07:34:25.408Z,98767.11
2022-10-23T07:37:06.545Z,98771.25
2022-10-23T07:39:35.304Z,98770.80
2022-10-23T07:42:05.747Z,98776.30
2022-10-23T07:44:33.061Z,98775.04
2022-10-23T07:47:01.283Z,98774.80
2022-10-23T07:49:28.458Z,98776.22
2022-10-23T07:51:58.953Z,98778.20
2022-10-23T07:54:30.443Z,98775.95
2022-10-23T07:57:00.641Z,98771.05
2022-10-23T07:59:38.754Z,98774.63
2022-10-23T08:02:11.623Z,98777.77
2022-10-23T08:04:38.935Z,98772.92
2022-10-23T08:07:32.980Z,98773.52
2022-10-23T08:10:03.401Z,98770.30
2022-10-23T08:12:31.223Z,98770.22
2022-10-23T08:14:58.351Z,98766.12
2022-10-23T08:17:29.143Z,98771.64
2022-10-23T08:20:16.460Z,98769.40
2022-10-23T08:22:45.489Z,98771.20
2022-10-23T08:25:15.828Z,98771.38
2022-10-23T08:27:44.531Z,98775.35
2022-10-23T08:30:13.720Z,98780.02
2022-10-23T08:32:41.001Z,98775.73
2022-10-23T08:35:08.827Z,98780.71
2022-10-23T08:37:38.065Z,98787.59
2022-10-23T08:40:05.540Z,98789.59
2022-10-23T08:43:10.795Z,98795.85
2022-10-23T08:46:07.334Z,98794.03
2022-10-23T08:49:28.454Z,98803.36
2022-10-23T08:52:00.735Z,98802.28
2022-10-23T08:54:48.954Z,98805.16
2022-10-23T08:57:16.846Z,98800.17
2022-10-23T08:59:55.420Z,98807.06
2022-10-23T09:02:32.952Z,98808.23
2022-10-23T09:05:00.044Z,98809.13
2022-10-23T09:07:34.683Z,98812.14
2022-10-23T09:10:27.603Z,98816.23
2022-10-23T09:13:31.002Z,98819.48
2022-10-23T09:16:04.493Z,98821.95
2022-10-23T09:18:31.637Z,98825.33
2022-10-23T09:20:58.789Z,98821.03
2022-10-23T09:23:26.372Z,98815.09
2022-10-23T09:25:57.114Z,98818.21
2022-10-23T09:28:27.350Z,98821.66
2022-10-23T09:31:12.135Z,98824.47
2022-10-23T09:33:39.338Z,98822.98
2022-10-23T09:36:08.212Z,98818.42
2022-10-23T09:38:47.392Z,98815.40
2022-10-23T09:41:18.659Z,98817.48
2022-10-23T09:43:46.057Z,98809.71
2022-10-23T09:46:13.202Z,98803.39
2022-10-23T09:48:44.401Z,98797.81
2022-10-23T09:51:21.183Z,98801.63
2022-10-23T09:53:56.708Z,98798.77
2022-10-23T09:56:30.742Z,98797.84
2022-10-23T09:59:01.575Z,98802.06
2022-10-23T10:01:36.437Z,98802.27
2022-10-23T10:04:41.668Z,98814.20
2022-10-23T10:07:25.570Z,98813.58
2022-10-23T10:09:53.594Z,98820.85
2022-10-23T10:12:35.841Z,98823.63
2022-10-23T10:15:09.230Z,98826.14
2022-10-23T10:17:59.502Z,98831.70
2022-10-23T10:20:54.316Z,98833.01
2022-10-23T10:23:40.135Z,98838.44
2022-10-23T10:26:13.563Z,98840.02
2022-10-23T10:29:02.903Z,98842.48
2022-10-23T10:31:36.459Z,98841.97
2022-10-23T10:34:14.907Z,98845.31
2022-10-23T10:36:51.271Z,98845.66
2022-10-23T10:39:28.361Z,98843.73
2022-10-23T10:41:58.459Z,98846.56
2022-10-23T10:44:35.278Z,98850.84
2022-10-23T10:47:16.006Z,98840.95
2022-10-23T10:49:55.611Z,98833.91
2022-10-23T10:52:39.354Z,98837.67
2022-10-23T10:55:12.706Z,98836.91
2022-10-23T10:57:48.875Z,98838.20
2022-10-23T11:00:17.895Z,98836.86
2022-10-23T11:02:53.178Z,98833.70
2022-10-23T11:05:35.545Z,98834.66
2022-10-23T11:08:40.195Z,98835.51
2022-10-23T11:11:32.353Z,98838.59
2022-10-23T11:13:59.312Z,98838.56
2022-10-23T11:16:36.302Z,98832.95
2022-10-23T11:19:18.549Z,98834.89
2022-10-23T11:22:10.260Z,98835.96
2022-10-23T11:24:58.773Z,98831.88
2022-10-23T11:27:31.698Z,98831.38
2022-10-23T11:30:10.990Z,98830.88
2022-10-23T11:33:01.283Z,98828.08
2022-10-23T11:35:53.552Z,98830.55
2022-10-23T11:38:37.319Z,98837.70
2022-10-23T11:41:26.792Z,98835.30
2022-10-23T11:44:05.237Z,98840.29
2022-10-23T11:46:35.399Z,98840.20
2022-10-23T11:49:06.125Z,98838.23
2022-10-23T11:51:40.858Z,98837.93
2022-10-23T11:54:11.251Z,98838.29
2022-10-23T11:56:38.805Z,98839.21
2022-10-23T11:59:28.494Z,98839.48
2022-10-23T12:01:57.064Z,98835.90
2022-10-23T12:04:27.166Z,98836.92
2022-10-23T12:06:56.455Z,98834.30
2022-10-23T12:09:51.944Z,98838.49
2022-10-23T12:12:29.209Z,98831.48
2022-10-23T12:15:15.933Z,98836.48
2022-10-23T12:17:44.000Z,98832.89
2022-10-23T12:20:12.313Z,98833.53
2022-10-23T12:23:11.059Z,98837.48
2022-10-23T12:26:02.169Z,98835.95
2022-10-23T12:28:44.479Z,98836.57
2022-10-23T12:31:21.551Z,98837.19
2022-10-23T12:34:01.772Z,98838.56
2022-10-23T12:36:59.474Z,98844.73
2022-10-23T12:39:33.831Z,98842.97
2022-10-23T12:42:01.313Z,98847.79
2022-10-23T12:44:28.676Z,98845.55
2022-10-23T12:46:58.172Z,98841.85
2022-10-23T12:49:27.962Z,98840.04
2022-10-23T12:51:57.170Z,98839.91
2022-10-23T12:54:24.382Z,98834.75
2022-10-23T12:56:52.047Z,98833.37
2022-10-23T12:59:38.271Z,98826.32
2022-10-23T13:02:35.050Z,98828.49
2022-10-23T13:05:05.745Z,98823.73
2022-10-23T13:07:35.831Z,98817.36
2022-10-23T13:10:04.839Z,98818.00
2022-10-23T13:12:40.982Z,98815.73
2022-10-23T13:15:07.995Z,98811.88
2022-10-23T13:17:38.977Z,98812.95
2022-10-23T13:20:35.371Z,98819.74
2022-10-23T13:23:10.181Z,98820.25
2022-10-23T13:25:38.648Z,98819.67
2022-10-23T13:28:11.969Z,98825.35
2022-10-23T13:30:42.798Z,98829.17
2022-10-23T13:33:24.352Z,98828.73
2022-10-23T13:36:23.902Z,98827.36
2022-10-23T13:39:02.834Z,98827.55
2022-10-23T13:41:35.800Z,98824.15
2022-10-23T13:44:05.860Z,98829.19
2022-10-23T13:46:33.440Z,98834.10
2022-10-23T13:49:00.364Z,98836.74
2022-10-23T13:51:28.405Z,98834.69
2022-10-23T13:53:56.115Z,98837.89
2022-10-23T13:56:25.304Z,98840.13
2022-10-23T13:58:52.961Z,98839.75
2022-10-23T14:01:23.564Z,98843.84
2022-10-23T14:03:51.431Z,98846.45
2022-10-23T14:06:18.721Z,98848.67
2022-10-23T14:08:45.825Z,98844.66
2022-10-23T14:11:17.534Z,98848.02
2022-10-23T14:13:44.825Z,98852.33
2022-10-23T14:16:12.822Z,98854.61
2022-10-23T14:18:39.941Z,98854.64
2022-10-23T14:21:09.044Z,98854.90
2022-10-23T14:23:36.858Z,98856.93
2022-10-23T14:26:12.221Z,98857.76
2022-10-23T14:28:39.726Z,98856.77
2022-10-23T14:31:11.473Z,98857.30
2022-10-23T14:33:38.882Z,98860.55
2022-10-23T14:36:06.375Z,98856.39
2022-10-23T14:38:33.795Z,98852.89
2022-10-23T14:41:01.056Z,98855.63
2022-10-23T14:43:28.039Z,98856.34
2022-10-23T14:45:55.075Z,98859.61
2022-10-23T14:48:22.321Z,98862.72
2022-10-23T14:50:49.496Z,98863.26
2022-10-23T14:53:16.691Z,98860.44
2022-10-23T14:55:45.233Z,98862.16
2022-10-23T14:58:12.326Z,98862.13
2022-10-23T15:00:43.369Z,98862.64
2022-10-23T15:03:10.557Z,98862.80
2022-10-23T15:05:41.626Z,98859.11
2022-10-23T15:08:08.678Z,98855.80
2022-10-23T15:10:37.329Z,98855.20
2022-10-23T15:13:04.881Z,98854.67
2022-10-23T15:15:31.817Z,98851.41
2022-10-23T15:18:00.410Z,98848.23
2022-10-23T15:20:27.461Z,98850.83
2022-10-23T15:22:54.480Z,98852.75
2022-10-23T15:25:22.008Z,98857.30
2022-10-23T15:27:49.220Z,98857.10
2022-10-23T15:30:16.696Z,98854.31
2022-10-23T15:32:44.550Z,98854.71
2022-10-23T15:35:11.804Z,98850.05
2022-10-23T15:37:38.858Z,98850.52
2022-10-23T15:40:06.717Z,98850.67
2022-10-23T15:42:33.674Z,98856.27
2022-10-23T15:45:00.780Z,98854.55
2022-10-23T15:47:27.837Z,98862.95
2022-10-23T15:49:55.409Z,98868.21
2022-10-23T15:52:22.866Z,98875.33
2022-10-23T15:54:54.538Z,98876.77
2022-10-23T15:57:21.505Z,98877.72
2022-10-23T15:59:48.531Z,98880.50
2022-10-23T16:02:15.783Z,98881.38
2022-10-23T16:04:43.343Z,98882.80
2022-10-23T16:07:10.577Z,98891.70
2022-10-23T16:09:40.041Z,98893.81
2022-10-23T16:12:07.407Z,98901.26
2022-10-23T16:14:34.364Z,98906.92
2022-10-23T16:17:02.141Z,98902.05
2022-10-23T16:19:29.311Z,98903.96
2022-10-23T16:21:56.472Z,98906.30
2022-10-23T16:24:23.417Z,98903.14
2022-10-23T16:26:53.392Z,98900.98
2022-10-23T16:29:22.194Z,98906.83
2022-10-23T16:31:49.564Z,98912.98
2022-10-23T16:34:16.686Z,98913.96
2022-10-23T16:36:45.096Z,98915.39
2022-10-23T16:39:25.014Z,98921.75
2022-10-23T16:42:10.635Z,98917.45
2022-10-23T16:45:04.422Z,98919.60
2022-10-23T16:47:31.580Z,98926.85
2022-10-23T16:49:58.785Z,98925.98
2022-10-23T16:52:26.320Z,98928.85
2022-10-23T16:54:53.436Z,98930.13
2022-10-23T16:57:20.617Z,98933.58
2022-10-23T16:59:47.565Z,98939.43
2022-10-23T17:02:15.002Z,98941.65
2022-10-23T17:04:44.208Z,98941.77
2022-10-23T17:07:13.279Z,98944.52
2022-10-23T17:09:43.686Z,98947.14
2022-10-23T17:12:10.599Z,98947.44
2022-10-23T17:14:38.770Z,98947.89
2022-10-23T17:17:06.998Z,98943.81
2022-10-23T17:19:45.469Z,98940.00
2022-10-23T17:22:13.943Z,98939.69
2022-10-23T17:24:42.051Z,98939.30
2022-10-23T17:27:09.169Z,98938.63
2022-10-23T17:29:36.265Z,98938.92
2022-10-23T17:32:03.577Z,98941.79
2022-10-23T17:34:31.035Z,98940.05
2022-10-23T17:36:59.368Z,98937.85
2022-10-23T17:39:27.511Z,98934.11
2022-10-23T17:41:54.694Z,98934.04
2022-10-23T17:44:22.116Z,98933.12
2022-10-23T17:46:54.795Z,98935.95
2022-10-23T17:49:22.697Z,98934.31
2022-10-23T17:51:54.356Z,98935.33
2022-10-23T17:54:21.624Z,98938.11
2022-10-23T17:56:49.492Z,98939.48
2022-10-23T17:59:19.780Z,98943.29
2022-10-23T18:01:48.370Z,98944.59
2022-10-23T18:04:17.664Z,98945.63
2022-10-23T18:06:49.352Z,98942.22
2022-10-23T18:09:16.792Z,98937.91
2022-10-23T18:11:48.583Z,98939.38
2022-10-23T18:14:17.880Z,98943.02
2022-10-23T18:16:45.889Z,98944.75
2022-10-23T18:19:14.580Z,98950.23
2022-10-23T18:21:41.788Z,98951.55
2022-10-23T18:24:08.818Z,98953.98
2022-10-23T18:26:37.786Z,98950.50
2022-10-23T18:29:07.571Z,98951.71
2022-10-23T18:31:37.404Z,98948.56
2022-10-23T18:34:07.726Z,98947.98
2022-10-23T18:36:37.681Z,98950.55
2022-10-23T18:39:06.993Z,98949.64
2022-10-23T18:41:39.745Z,98951.36
2022-10-23T18:44:06.723Z,98959.19
2022-10-23T18:46:34.379Z,98955.86
2022-10-23T18:49:01.468Z,98956.17
2022-10-23T18:51:30.775Z,98950.83
2022-10-23T18:54:00.392Z,98947.31
2022-10-23T18:56:28.071Z,98948.48
2022-10-23T18:58:57.863Z,98949.46
2022-10-23T19:01:25.343Z,98942.00
2022-10-23T19:03:52.972Z,98944.66
2022-10-23T19:06:20.681Z,98935.05
2022-10-23T19:08:50.364Z,98937.06
2022-10-23T19:11:18.944Z,98937.31
2022-10-23T19:13:45.960Z,98935.14
2022-10-23T19:16:18.283Z,98932.10
2022-10-23T19:18:47.171Z,98934.48
2022-10-23T19:21:15.313Z,98935.17
2022-10-23T19:23:43.173Z,98931.58
2022-10-23T19:26:12.075Z,98932.61
2022-10-23T19:28:44.217Z,98929.68
2022-10-23T19:31:11.776Z,98930.75
2022-10-23T19:33:39.075Z,98929.52
2022-10-23T19:36:08.855Z,98930.41
2022-10-23T19:38:40.352Z,98928.30
2022-10-23T19:41:07.693Z,98931.00
2022-10-23T19:43:35.028Z,98933.42
2022-10-23T19:46:06.518Z,98935.72
2022-10-23T19:48:37.961Z,98937.89
2022-10-23T19:51:07.648Z,98936.52
2022-10-23T19:53:35.844Z,98942.24
2022-10-23T19:56:04.427Z,98946.83
2022-10-23T19:58:31.488Z,98946.94
2022-10-23T20:00:58.554Z,98943.56
2022-10-23T20:03:26.974Z,98939.60
2022-10-23T20:05:54.294Z,98938.42
2022-10-23T20:08:21.221Z,98941.06
2022-10-23T20:10:50.596Z,98941.95
2022-10-23T20:13:20.242Z,98940.16
2022-10-23T20:15:49.736Z,98937.09
2022-10-23T20:18:17.256Z,98933.94
2022-10-23T20:20:44.165Z,98928.34
2022-10-23T20:23:11.899Z,98923.78
2022-10-23T20:25:38.899Z,98924.78
2022-10-23T20:28:08.194Z,98923.23
2022-10-23T20:30:41.535Z,98924.64
2022-10-23T20:33:08.689Z,98922.79
2022-10-23T20:35:40.519Z,98923.92
2022-10-23T20:38:08.152Z,98929.70
2022-10-23T20:40:35.418Z,98926.83
2022-10-23T20:43:02.556Z,98926.30
2022-10-23T20:45:29.695Z,98926.79
2022-10-23T20:47:56.919Z,98923.15
2022-10-23T20:50:23.967Z,98918.35
2022-10-23T20:52:51.418Z,98918.78
2022-10-23T20:55:18.960Z,98919.20
2022-10-23T20:57:46.271Z,98917.59
2022-10-23T21:00:14.041Z,98915.00
2022-10-23T21:02:41.511Z,98910.42
2022-10-23T21:05:09.212Z,98913.31
2022-10-23T21:07:36.409Z,98907.67
2022-10-23T21:10:04.312Z,98908.34
2022-10-23T21:12:35.331Z,98907.50
2022-10-23T21:15:02.342Z,98912.34
2022-10-23T21:17:35.800Z,98916.85
2022-10-23T21:20:03.510Z,98916.30
2022-10-23T21:22:31.954Z,98908.85
2022-10-23T21:25:00.221Z,98906.02
2022-10-23T21:27:27.462Z,98910.48
2022-10-23T21:29:54.747Z,98907.51
2022-10-23T21:32:21.767Z,98907.17
2022-10-23T21:34:48.762Z,98906.02
2022-10-23T21:37:15.791Z,98901.44
2022-10-23T21:39:43.324Z,98897.17
2022-10-23T21:42:11.349Z,98894.12
2022-10-23T21:44:38.415Z,98893.95
2022-10-23T21:47:05.549Z,98894.10
2022-10-23T21:49:33.541Z,98898.63
2022-10-23T21:52:00.506Z,98893.97
2022-10-23T21:54:27.715Z,98887.38
2022-10-23T21:56:54.914Z,98883.15
2022-10-23T21:59:25.910Z,98883.95
2022-10-23T22:01:55.302Z,98886.29
2022-10-23T22:04:22.457Z,98890.81
2022-10-23T22:06:53.338Z,98891.23
2022-10-23T22:09:22.284Z,98892.88
2022-10-23T22:11:52.851Z,98893.46
2022-10-23T22:14:20.044Z,98889.90
2022-10-23T22:16:47.693Z,98888.48
2022-10-23T22:19:15.380Z,98888.44
2022-10-23T22:21:44.588Z,98887.96
2022-10-23T22:24:11.894Z,98893.89
2022-10-23T22:26:40.635Z,98891.40
2022-10-23T22:29:12.472Z,98893.98
2022-10-23T22:31:44.129Z,98896.59
2022-10-23T22:34:51.465Z,98895.08
2022-10-23T22:37:14.173Z,98900.20
2022-10-23T22:39:41.972Z,98905.06
2022-10-23T22:42:08.985Z,98899.41
2022-10-23T22:44:35.969Z,98898.94
2022-10-23T22:47:06.332Z,98897.06
2022-10-23T22:49:34.131Z,98895.04
2022-10-23T22:52:02.071Z,98891.06
2022-10-23T22:54:31.408Z,98888.80
2022-10-23T22:57:00.654Z,98887.78
2022-10-23T22:59:27.653Z,98887.21
2022-10-23T23:01:54.964Z,98884.27
2022-10-23T23:04:38.958Z,98883.16
2022-10-23T23:07:10.995Z,98891.28
2022-10-23T23:09:42.866Z,98898.83
2022-10-23T23:12:12.409Z,98896.75
2022-10-23T23:14:39.514Z,98898.68
2022-10-23T23:17:07.127Z,98891.10
2022-10-23T23:19:34.709Z,98887.45
2022-10-23T23:22:01.914Z,98888.50
2022-10-23T23:24:29.052Z,98891.55
2022-10-23T23:26:55.986Z,98892.79
2022-10-23T23:29:23.011Z,98900.71
2022-10-23T23:31:50.246Z,98901.38
2022-10-23T23:34:17.179Z,98904.02
2022-10-23T23:36:45.694Z,98906.94
2022-10-23T23:39:12.759Z,98908.77
2022-10-23T23:41:39.704Z,98917.64
2022-10-23T23:44:08.459Z,98920.91
2022-10-23T23:46:35.375Z,98925.48
2022-10-23T23:49:02.956Z,98928.58
2022-10-23T23:51:29.890Z,98927.77
2022-10-23T23:53:56.798Z,98934.77
2022-10-23T23:56:23.927Z,98933.98
2022-10-23T23:58:50.824Z,98930.35
